createdAt,value
2019-02-26T00:04:14.883Z,101286.49
2019-02-26T00:10:22.298Z,101287.10
2019-02-26T00:16:25.849Z,101287.41
2019-02-26T00:22:32.254Z,101290.59
2019-02-26T00:28:39.242Z,101283.89
2019-02-26T00:34:43.239Z,101293.23
2019-02-26T00:40:47.804Z,101283.45
2019-02-26T00:46:53.589Z,101282.89
2019-02-26T00:52:59.321Z,101288.20
2019-02-26T00:59:05.116Z,101270.22
2019-02-26T01:05:11.317Z,101267.91
2019-02-26T01:11:16.862Z,101270.52
2019-02-26T01:17:21.574Z,101276.88
2019-02-26T01:23:26.793Z,101257.56
2019-02-26T01:29:32.552Z,101238.16
2019-02-26T01:35:37.755Z,101237.70
2019-02-26T01:41:45.463Z,101227.34
2019-02-26T01:47:50.449Z,101225.85
2019-02-26T01:53:55.085Z,101224.61
2019-02-26T02:00:00.479Z,101237.78
2019-02-26T02:06:06.264Z,101225.33
2019-02-26T02:12:11.482Z,101217.98
2019-02-26T02:18:17.975Z,101217.02
2019-02-26T02:24:24.504Z,101214.08
2019-02-26T02:30:31.477Z,101222.64
2019-02-26T02:36:35.375Z,101221.08
2019-02-26T02:42:40.821Z,101205.23
2019-02-26T02:48:46.435Z,101205.28
2019-02-26T02:54:51.872Z,101213.31
2019-02-26T03:00:57.980Z,101214.98
2019-02-26T03:07:03.257Z,101219.47
2019-02-26T03:13:07.940Z,101221.06
2019-02-26T03:19:14.612Z,101221.82
2019-02-26T03:25:22.977Z,101219.36
2019-02-26T03:31:29.251Z,101220.45
2019-02-26T03:37:34.654Z,101220.74
2019-02-26T03:43:39.292Z,101223.00
2019-02-26T03:49:44.995Z,101217.10
2019-02-26T03:55:49.988Z,101219.57
2019-02-26T04:01:54.613Z,101214.28
2019-02-26T04:08:01.698Z,101213.14
2019-02-26T04:14:12.125Z,101213.56
2019-02-26T04:20:15.126Z,101221.30
2019-02-26T04:26:48.816Z,101214.05
2019-02-26T04:33:11.428Z,101222.70
2019-02-26T04:39:49.926Z,101224.59
2019-02-26T04:46:08.496Z,101224.13
2019-02-26T04:52:17.374Z,101227.03
2019-02-26T04:58:22.721Z,101222.43
2019-02-26T05:04:28.118Z,101223.29
2019-02-26T05:10:34.391Z,101216.02
2019-02-26T05:16:40.327Z,101209.61
2019-02-26T05:22:45.128Z,101201.02
2019-02-26T05:28:51.537Z,101208.47
2019-02-26T05:34:56.195Z,101205.64
2019-02-26T05:41:00.752Z,101207.91
2019-02-26T05:47:05.534Z,101204.59
2019-02-26T05:53:12.718Z,101202.33
2019-02-26T05:59:18.069Z,101220.85
2019-02-26T06:05:24.075Z,101215.38
2019-02-26T06:11:33.286Z,101205.34
2019-02-26T06:17:40.559Z,101202.32
2019-02-26T06:23:43.779Z,101215.97
2019-02-26T06:29:48.340Z,101227.12
2019-02-26T06:35:54.797Z,101222.95
2019-02-26T06:41:59.354Z,101222.60
2019-02-26T06:48:04.011Z,101203.94
2019-02-26T06:54:08.696Z,101203.16
2019-02-26T07:00:19.710Z,101207.28
2019-02-26T07:06:25.577Z,101225.40
2019-02-26T07:12:29.991Z,101227.47
2019-02-26T07:18:34.668Z,101243.92
2019-02-26T07:24:41.209Z,101237.33
2019-02-26T07:30:46.916Z,101242.00
2019-02-26T07:36:52.549Z,101241.88
2019-02-26T07:42:57.266Z,101226.00
2019-02-26T07:49:04.249Z,101232.59
2019-02-26T07:55:12.019Z,101224.20
2019-02-26T08:01:17.104Z,101227.88
2019-02-26T08:07:23.898Z,101225.78
2019-02-26T08:13:29.849Z,101224.90
2019-02-26T08:19:36.793Z,101222.63
2019-02-26T08:25:41.013Z,101226.77
2019-02-26T08:31:47.455Z,101231.96
2019-02-26T08:37:51.936Z,101230.08
2019-02-26T08:43:58.711Z,101226.47
2019-02-26T08:50:06.468Z,101226.72
2019-02-26T08:56:10.479Z,101221.73
2019-02-26T09:02:34.449Z,101227.36
2019-02-26T09:08:40.663Z,101212.07
2019-02-26T09:14:47.634Z,101198.51
2019-02-26T09:20:51.792Z,101203.05
2019-02-26T09:26:57.552Z,101209.75
2019-02-26T09:33:03.417Z,101212.67
2019-02-26T09:39:10.760Z,101223.25
2019-02-26T09:45:25.408Z,101224.78
2019-02-26T09:51:30.625Z,101225.41
2019-02-26T09:57:35.412Z,101224.34
2019-02-26T10:03:41.451Z,101223.03
2019-02-26T10:09:48.475Z,101226.45
2019-02-26T10:15:52.401Z,101209.70
2019-02-26T10:21:59.460Z,101203.98
2019-02-26T10:28:08.707Z,101209.95
2019-02-26T10:34:12.434Z,101206.11
2019-02-26T10:40:17.153Z,101206.28
2019-02-26T10:46:22.901Z,101206.91
2019-02-26T10:52:28.683Z,101212.94
2019-02-26T10:58:33.526Z,101213.06
2019-02-26T11:04:41.348Z,101214.99
2019-02-26T11:10:46.972Z,101214.52
2019-02-26T11:16:51.263Z,101201.94
2019-02-26T11:22:55.831Z,101200.64
2019-02-26T11:29:01.293Z,101192.38
2019-02-26T11:35:14.671Z,101191.62
2019-02-26T11:41:19.545Z,101188.12
2019-02-26T11:47:24.202Z,101184.59
2019-02-26T11:53:29.860Z,101180.45
2019-02-26T11:59:35.691Z,101175.50
2019-02-26T12:05:41.904Z,101174.53
2019-02-26T12:11:46.527Z,101165.16
2019-02-26T12:17:51.879Z,101166.97
2019-02-26T12:24:01.535Z,101160.81
2019-02-26T12:30:13.175Z,101154.89
2019-02-26T12:36:16.771Z,101147.62
2019-02-26T12:42:21.748Z,101133.88
2019-02-26T12:48:26.682Z,101124.63
2019-02-26T12:54:33.498Z,101121.37
2019-02-26T13:00:41.275Z,101117.11
2019-02-26T13:06:47.741Z,101104.05
2019-02-26T13:12:55.036Z,101097.41
2019-02-26T13:19:00.801Z,101087.97
2019-02-26T13:25:08.254Z,101078.30
2019-02-26T13:31:13.391Z,101072.66
2019-02-26T13:37:16.964Z,101070.85
2019-02-26T13:43:21.626Z,101059.91
2019-02-26T13:49:26.186Z,101050.40
2019-02-26T13:55:31.083Z,101038.83
2019-02-26T14:01:35.881Z,101035.28
2019-02-26T14:07:40.651Z,101036.36
2019-02-26T14:13:45.493Z,101033.38
2019-02-26T14:19:51.103Z,101032.55
2019-02-26T14:25:56.108Z,101031.75
2019-02-26T14:32:00.866Z,101016.63
2019-02-26T14:38:05.534Z,101013.34
2019-02-26T14:44:10.203Z,100987.59
2019-02-26T14:50:22.486Z,100990.05
2019-02-26T14:56:27.180Z,100984.27
2019-02-26T15:02:32.171Z,100981.26
2019-02-26T15:08:37.037Z,100963.00
2019-02-26T15:14:42.327Z,100952.73
2019-02-26T15:20:47.035Z,100952.74
2019-02-26T15:26:51.629Z,100962.01
2019-02-26T15:32:56.273Z,100949.94
2019-02-26T15:39:02.399Z,100944.30
2019-02-26T15:45:25.293Z,100948.28
2019-02-26T15:51:30.484Z,100948.78
2019-02-26T15:57:35.406Z,100947.81
2019-02-26T16:03:40.212Z,100948.89
2019-02-26T16:09:44.795Z,100944.82
2019-02-26T16:15:49.388Z,100930.91
2019-02-26T16:21:54.012Z,100938.54
2019-02-26T16:27:58.645Z,100939.13
2019-02-26T16:34:03.470Z,100944.27
2019-02-26T16:40:12.032Z,100939.69
2019-02-26T16:46:16.698Z,100948.92
2019-02-26T16:52:21.683Z,100946.77
2019-02-26T16:58:26.288Z,100943.30
2019-02-26T17:04:31.299Z,100941.53
2019-02-26T17:10:35.954Z,100956.61
2019-02-26T17:16:40.799Z,100953.91
2019-02-26T17:22:45.459Z,100964.40
2019-02-26T17:28:50.256Z,100970.23
2019-02-26T17:34:55.773Z,100986.10
2019-02-26T17:41:01.035Z,100988.04
2019-02-26T17:47:05.693Z,100988.17
2019-02-26T17:53:10.312Z,100990.98
2019-02-26T17:59:16.913Z,100991.10
2019-02-26T18:05:21.580Z,100994.98
2019-02-26T18:11:26.174Z,100994.98
2019-02-26T18:17:30.737Z,100998.59
2019-02-26T18:23:37.517Z,100994.93
2019-02-26T18:29:41.803Z,100999.27
2019-02-26T18:35:46.354Z,100993.80
2019-02-26T18:41:51.018Z,100995.09
2019-02-26T18:47:55.658Z,100990.17
2019-02-26T18:54:00.498Z,100986.16
2019-02-26T19:00:08.805Z,100999.34
2019-02-26T19:06:13.493Z,100999.97
2019-02-26T19:12:18.604Z,100994.17
2019-02-26T19:18:23.484Z,100990.47
2019-02-26T19:24:28.239Z,101002.09
2019-02-26T19:30:36.757Z,100999.97
2019-02-26T19:36:39.845Z,100994.54
2019-02-26T19:42:44.626Z,101000.23
2019-02-26T19:48:49.252Z,100997.79
2019-02-26T19:54:53.915Z,100998.07
2019-02-26T20:00:58.654Z,100995.84
2019-02-26T20:07:03.376Z,100994.63
2019-02-26T20:13:12.556Z,100991.95
2019-02-26T20:19:14.440Z,100987.34
2019-02-26T20:25:20.807Z,100999.59
2019-02-26T20:31:25.463Z,100998.12
2019-02-26T20:37:30.132Z,100999.14
2019-02-26T20:43:36.919Z,100993.83
2019-02-26T20:49:41.142Z,100990.96
2019-02-26T20:55:52.267Z,100989.64
2019-02-26T21:01:52.216Z,100978.52
2019-02-26T21:07:58.746Z,100978.41
2019-02-26T21:14:03.264Z,100982.70
2019-02-26T21:20:12.656Z,100979.69
2019-02-26T21:26:19.323Z,100982.81
2019-02-26T21:32:25.674Z,100973.86
2019-02-26T21:38:30.084Z,100963.97
2019-02-26T21:44:34.737Z,100970.29
2019-02-26T21:50:39.301Z,100966.67
2019-02-26T21:56:43.859Z,100969.63
2019-02-26T22:02:52.130Z,100968.41
2019-02-26T22:08:56.967Z,100969.41
2019-02-26T22:15:01.764Z,100977.72
2019-02-26T22:21:06.375Z,100961.42
2019-02-26T22:27:10.969Z,100959.09
2019-02-26T22:33:15.597Z,100951.86
2019-02-26T22:39:22.689Z,100948.59
2019-02-26T22:45:27.990Z,100951.14
2019-02-26T22:51:33.211Z,100950.31
2019-02-26T22:57:38.208Z,100948.27
2019-02-26T23:03:45.734Z,100942.70
2019-02-26T23:09:52.041Z,100937.03
2019-02-26T23:15:56.064Z,100926.79
2019-02-26T23:22:00.842Z,100927.61
2019-02-26T23:28:05.810Z,100917.45
2019-02-26T23:34:10.644Z,100914.56
2019-02-26T23:40:15.640Z,100910.41
2019-02-26T23:46:20.290Z,100927.56
2019-02-26T23:52:27.595Z,100912.09
2019-02-26T23:58:31.678Z,100921.78
